createdAt,value
2022-09-18T00:03:21.371Z,27.8311
2022-09-18T00:18:23.295Z,28.985
2022-09-18T00:33:25.244Z,29.6121
2022-09-18T00:48:27.180Z,29.4499
2022-09-18T01:03:29.157Z,29.4858
2022-09-18T01:18:31.123Z,29.8238
2022-09-18T01:33:32.956Z,29.7947
2022-09-18T01:48:34.972Z,30.0807
2022-09-18T02:03:37.017Z,29.9055
2022-09-18T02:18:38.917Z,29.6907
2022-09-18T02:33:40.819Z,29.9835
2022-09-18T02:48:42.769Z,29.9445
2022-09-18T03:03:44.814Z,30.1036
2022-09-18T03:18:46.737Z,29.6814
2022-09-18T03:33:48.672Z,29.6616
2022-09-18T03:48:50.713Z,29.5025
2022-09-18T04:03:52.713Z,29.6616
2022-09-18T04:18:54.651Z,29.3564
2022-09-18T04:33:56.612Z,29.7396
2022-09-18T04:48:58.567Z,29.4338
2022-09-18T05:04:00.480Z,28.9825
2022-09-18T05:19:02.425Z,27.6757
2022-09-18T05:34:04.328Z,27.8639
2022-09-18T05:49:06.434Z,28.3845
2022-09-18T06:04:08.372Z,28.6606
2022-09-18T06:19:10.339Z,28.3647
2022-09-18T06:34:12.216Z,28.2508
2022-09-18T06:49:14.205Z,27.7667
2022-09-18T07:04:16.086Z,28.153
2022-09-18T07:19:17.991Z,27.1037
2022-09-18T07:34:19.911Z,27.932
2022-09-18T07:49:21.834Z,27.2368
2022-09-18T08:04:23.766Z,27.5711
2022-09-18T08:19:26.308Z,27.321
2022-09-18T08:34:28.230Z,27.204
2022-09-18T08:49:30.167Z,26.3788
2022-09-18T09:04:32.108Z,26.2482
2022-09-18T09:19:34.067Z,26.7682
2022-09-18T09:34:36.002Z,26.1968
2022-09-18T09:49:37.931Z,25.9232
2022-09-18T10:04:39.867Z,25.8774
2022-09-18T10:19:41.790Z,24.6752
2022-09-18T10:34:43.699Z,24.1484
2022-09-18T10:49:45.613Z,23.7355
2022-09-18T11:04:47.604Z,23.2025
2022-09-18T11:19:49.593Z,22.0257
2022-09-18T11:34:51.785Z,22.0647
2022-09-18T11:49:53.686Z,22.1167
2022-09-18T12:04:55.625Z,21.5187
2022-09-18T12:19:56.219Z,21.4407
2022-09-18T12:34:58.115Z,20.8879
2022-09-18T12:50:00.679Z,21.0309
2022-09-18T13:05:02.608Z,20.9789
2022-09-18T13:20:05.263Z,20.93
2022-09-18T13:35:07.139Z,21.2321
2022-09-18T13:50:09.086Z,20.9399
2022-09-18T14:05:11.698Z,20.6638
2022-09-18T14:20:13.606Z,20.5301
2022-09-18T14:35:15.591Z,20.5462
2022-09-18T14:50:17.533Z,20.6471
2022-09-18T15:05:19.444Z,20.384
2022-09-18T15:20:21.389Z,20.4422
2022-09-18T15:35:23.323Z,20.3122
2022-09-18T15:50:25.278Z,20.3772
2022-09-18T16:05:27.195Z,20.5072
2022-09-18T16:20:29.112Z,20.4261
2022-09-18T16:35:31.034Z,20.5691
2022-09-18T16:50:32.951Z,21.0173
2022-09-18T17:05:34.888Z,20.6762
2022-09-18T17:20:36.798Z,20.631
2022-09-18T17:35:38.713Z,21.1832
2022-09-18T17:50:40.638Z,21.8592
2022-09-18T18:05:42.543Z,21.9861
2022-09-18T18:20:44.466Z,21.1182
2022-09-18T18:35:46.448Z,22.9543
2022-09-18T18:50:48.331Z,22.7791
2022-09-18T19:05:50.279Z,22.711
2022-09-18T19:20:52.397Z,22.8899
2022-09-18T19:35:54.314Z,22.984
2022-09-18T19:50:56.243Z,23.3839
2022-09-18T20:05:58.148Z,23.2799
2022-09-18T20:21:00.137Z,23.907
2022-09-18T20:36:02.051Z,23.6668
2022-09-18T20:51:04.015Z,23.8618
2022-09-18T21:06:21.360Z,24.0147
2022-09-18T21:21:23.607Z,25.09
2022-09-18T21:36:25.513Z,24.6616
2022-09-18T21:51:27.458Z,24.6127
2022-09-18T22:06:29.413Z,24.7786
2022-09-18T22:21:31.318Z,25.0349
2022-09-18T22:36:33.280Z,24.8727
2022-09-18T22:51:35.163Z,25.4577
2022-09-18T23:06:37.108Z,24.2295
2022-09-18T23:21:39.069Z,24.7792
2022-09-18T23:36:40.967Z,27.0152
2022-09-18T23:51:42.951Z,27.1941
